Time;durP1;ratioP1;P1;durP2;ratioP2;P2;SDS_P1;SDS_P2;PMS_P1;PMS_P2;Temp;Humidity;BMP_temperature;BMP_pressure;BME280_temperature;BME280_humidity;BME280_pressure;Samples;Min_cycle;Max_cycle;Signal;HPM_P1;HPM_P2
2022/10/31 00:01:14;;;;;;;54.00;38.78;;;19.30;89.90;;;;;;5014068;28;20417;-82
2022/10/31 00:03:40;;;;;;;57.38;38.00;;;19.20;90.00;;;;;;5011948;28;20026;-82
2022/10/31 00:06:06;;;;;;;60.05;40.63;;;19.20;90.00;;;;;;5012987;28;20018;-81
2022/10/31 00:08:31;;;;;;;52.65;38.17;;;19.20;90.10;;;;;;5013397;28;20060;-81
2022/10/31 00:10:57;;;;;;;52.90;39.75;;;19.20;90.30;;;;;;5011767;28;20109;-82
2022/10/31 00:13:23;;;;;;;57.13;39.88;;;19.20;90.10;;;;;;5011874;28;20042;-82
2022/10/31 00:15:48;;;;;;;57.97;39.22;;;19.10;90.10;;;;;;5012163;28;20038;-81
2022/10/31 00:18:14;;;;;;;59.03;40.30;;;19.20;90.10;;;;;;5012975;28;20072;-82
2022/10/31 00:20:39;;;;;;;63.00;42.00;;;19.10;90.10;;;;;;5012860;28;20022;-82
2022/10/31 00:23:06;;;;;;;60.15;41.40;;;19.10;90.10;;;;;;5012249;28;20022;-82
2022/10/31 00:25:38;;;;;;;61.78;41.95;;;19.10;90.10;;;;;;5009932;28;20132;-81
2022/10/31 00:28:05;;;;;;;59.67;40.42;;;19.10;90.10;;;;;;5008725;28;20824;-82
2022/10/31 00:30:31;;;;;;;60.45;40.75;;;19.10;90.20;;;;;;5013404;28;20037;-82
2022/10/31 00:32:57;;;;;;;59.42;40.88;;;19.10;90.20;;;;;;5013377;28;20378;-82
2022/10/31 00:35:22;;;;;;;55.95;40.08;;;19.10;90.30;;;;;;5011093;28;20034;-82
2022/10/31 00:37:48;;;;;;;57.35;39.55;;;19.10;90.30;;;;;;5011942;28;20037;-82
2022/10/31 00:40:14;;;;;;;57.50;39.25;;;19.10;90.30;;;;;;5011980;28;20030;-82
2022/10/31 00:42:41;;;;;;;59.78;41.58;;;19.10;90.30;;;;;;5009665;28;20037;-82
2022/10/31 00:45:09;;;;;;;54.08;39.08;;;19.00;90.30;;;;;;5012666;28;20060;-82
2022/10/31 00:47:34;;;;;;;56.83;39.53;;;19.00;90.30;;;;;;5011251;28;20034;-82
2022/10/31 00:50:00;;;;;;;60.58;40.45;;;19.00;90.30;;;;;;5013721;28;20393;-83
2022/10/31 00:52:26;;;;;;;52.33;38.67;;;19.00;90.30;;;;;;5012082;28;20163;-82
2022/10/31 00:54:51;;;;;;;57.05;37.83;;;19.00;90.30;;;;;;5013320;28;20335;-81
2022/10/31 00:57:17;;;;;;;56.33;38.58;;;19.00;90.30;;;;;;5011955;28;20462;-82
2022/10/31 00:59:42;;;;;;;51.42;37.08;;;18.90;90.40;;;;;;5012170;28;20034;-82
2022/10/31 01:02:08;;;;;;;53.78;38.72;;;19.00;90.40;;;;;;5012741;28;20030;-82
2022/10/31 01:04:34;;;;;;;53.33;37.22;;;18.90;90.40;;;;;;5012890;28;20105;-82
2022/10/31 01:06:59;;;;;;;53.28;37.03;;;18.90;90.30;;;;;;5012112;28;20084;-82
2022/10/31 01:09:25;;;;;;;54.80;37.70;;;18.90;90.30;;;;;;5012715;28;20037;-82
2022/10/31 01:11:51;;;;;;;52.85;37.50;;;18.90;90.30;;;;;;5012570;28;20041;-82
2022/10/31 01:14:17;;;;;;;53.83;37.65;;;18.90;90.30;;;;;;5012000;28;20034;-82
2022/10/31 01:16:42;;;;;;;52.78;37.85;;;18.90;90.30;;;;;;5012962;28;20029;-82
2022/10/31 01:19:08;;;;;;;52.90;37.72;;;18.90;90.40;;;;;;5011987;28;20030;-82
2022/10/31 01:21:34;;;;;;;55.42;38.45;;;18.90;90.40;;;;;;5012951;28;21804;-82
2022/10/31 01:24:01;;;;;;;55.00;38.83;;;18.90;90.40;;;;;;5014107;28;20092;-82
2022/10/31 01:26:30;;;;;;;61.00;42.22;;;18.90;90.40;;;;;;5005601;28;20030;-82
2022/10/31 01:29:01;;;;;;;54.75;41.28;;;18.80;90.50;;;;;;5007247;28;20095;-82
2022/10/31 01:31:30;;;;;;;53.17;38.28;;;18.80;90.70;;;;;;5011137;28;20057;-82
2022/10/31 01:33:56;;;;;;;53.67;38.08;;;18.70;90.80;;;;;;5012803;28;20103;-82
2022/10/31 01:36:28;;;;;;;52.22;38.78;;;18.70;90.90;;;;;;5011905;28;20033;-81
2022/10/31 01:38:57;;;;;;;50.53;39.25;;;18.70;90.90;;;;;;5011826;28;20018;-82
2022/10/31 01:41:26;;;;;;;51.83;36.97;;;18.70;90.90;;;;;;5011322;28;21811;-82
2022/10/31 01:43:55;;;;;;;50.42;36.05;;;18.70;91.00;;;;;;5011390;28;20117;-82
2022/10/31 01:46:33;;;;;;;49.60;36.75;;;18.60;91.00;;;;;;5011411;28;20104;-81
2022/10/31 01:49:05;;;;;;;51.85;35.63;;;18.70;90.90;;;;;;5011464;28;20117;-82
2022/10/31 01:51:36;;;;;;;48.92;35.13;;;18.60;90.90;;;;;;5011882;28;20523;-82
2022/10/31 01:54:07;;;;;;;44.97;34.03;;;18.70;90.80;;;;;;5011233;28;20057;-82
2022/10/31 01:56:39;;;;;;;48.28;33.58;;;18.70;90.80;;;;;;5008201;28;20053;-82
2022/10/31 01:59:10;;;;;;;47.55;35.55;;;18.60;90.80;;;;;;5009700;28;20026;-82
2022/10/31 02:01:37;;;;;;;44.92;33.97;;;18.60;90.70;;;;;;5008488;28;20026;-82
2022/10/31 02:04:03;;;;;;;47.40;34.28;;;18.60;90.70;;;;;;5011222;28;20029;-82
2022/10/31 02:06:44;;;;;;;44.33;33.67;;;18.60;90.70;;;;;;5010036;28;20044;-81
2022/10/31 02:09:12;;;;;;;48.47;34.15;;;18.60;90.70;;;;;;5011730;28;20096;-81
2022/10/31 02:11:38;;;;;;;43.42;33.30;;;18.60;90.70;;;;;;5008884;28;20477;-81
2022/10/31 02:14:04;;;;;;;47.15;34.80;;;18.60;90.90;;;;;;5010719;28;20029;-81
2022/10/31 02:16:30;;;;;;;42.92;33.70;;;18.60;90.80;;;;;;5010067;28;20037;-81
2022/10/31 02:18:56;;;;;;;46.75;33.95;;;18.60;90.80;;;;;;5011495;28;20022;-81
2022/10/31 02:21:37;;;;;;;48.20;34.33;;;18.50;90.80;;;;;;5006582;28;20069;-81
2022/10/31 02:24:17;;;;;;;49.20;33.78;;;18.60;90.80;;;;;;5002941;28;20026;-81
2022/10/31 02:27:04;;;;;;;45.00;33.00;;;18.50;90.80;;;;;;5011702;28;20470;-81
2022/10/31 02:29:41;;;;;;;39.10;30.40;;;18.50;90.80;;;;;;5003754;28;20442;-81
2022/10/31 02:32:25;;;;;;;41.92;32.90;;;18.50;90.70;;;;;;5008990;28;20064;-81
2022/10/31 02:34:56;;;;;;;38.20;29.40;;;18.40;90.70;;;;;;5005030;28;20084;-81
2022/10/31 02:37:33;;;;;;;39.67;29.73;;;18.30;90.70;;;;;;5007480;28;20038;-82
2022/10/31 02:40:26;;;;;;;39.53;29.13;;;18.30;90.80;;;;;;5010684;28;20068;-81
2022/10/31 02:43:19;;;;;;;35.92;27.05;;;18.20;90.80;;;;;;5007161;28;20034;-82
2022/10/31 02:45:57;;;;;;;33.55;26.48;;;18.20;90.80;;;;;;5009846;28;20365;-81
2022/10/31 02:48:28;;;;;;;30.45;25.23;;;18.20;90.80;;;;;;5009257;28;20045;-81
2022/10/31 02:51:00;;;;;;;33.08;24.98;;;18.20;90.80;;;;;;5011627;28;20026;-81
2022/10/31 02:53:26;;;;;;;31.02;24.58;;;18.20;90.90;;;;;;5010553;28;20108;-81
2022/10/31 02:56:18;;;;;;;33.03;24.77;;;18.10;90.90;;;;;;5011408;28;21371;-81
2022/10/31 02:59:03;;;;;;;29.65;22.98;;;18.10;90.90;;;;;;5002522;28;20041;-82
2022/10/31 03:01:50;;;;;;;27.95;22.30;;;18.00;90.90;;;;;;5009857;28;20100;-83
2022/10/31 03:04:29;;;;;;;25.38;21.00;;;18.00;91.00;;;;;;5011103;28;20034;-81
2022/10/31 03:07:15;;;;;;;29.25;22.75;;;18.00;91.10;;;;;;5010237;28;20030;-81
2022/10/31 03:10:04;;;;;;;26.00;19.98;;;18.00;91.10;;;;;;5004260;28;20037;-81
2022/10/31 03:12:47;;;;;;;23.52;20.20;;;17.90;91.10;;;;;;5009585;28;20033;-81
2022/10/31 03:15:33;;;;;;;27.23;20.95;;;17.90;91.20;;;;;;5008535;28;20409;-81
2022/10/31 03:18:09;;;;;;;27.48;20.27;;;17.90;91.30;;;;;;5010405;28;20463;-82
2022/10/31 03:20:46;;;;;;;26.10;20.80;;;17.80;91.30;;;;;;5004565;28;20462;-81
2022/10/31 03:23:16;;;;;;;26.80;19.85;;;17.80;91.30;;;;;;5010892;28;20026;-81
2022/10/31 03:25:43;;;;;;;25.13;20.42;;;17.80;91.40;;;;;;5010699;28;20465;-82
2022/10/31 03:28:12;;;;;;;26.40;20.30;;;17.80;91.40;;;;;;5008760;28;20054;-81
2022/10/31 03:30:42;;;;;;;26.88;21.27;;;17.80;91.40;;;;;;5003740;28;20481;-82
2022/10/31 03:33:11;;;;;;;27.17;20.85;;;17.90;91.30;;;;;;5008035;28;20470;-81
2022/10/31 03:35:40;;;;;;;28.85;21.13;;;17.90;91.20;;;;;;5003300;28;20378;-81
2022/10/31 03:38:07;;;;;;;26.10;19.50;;;17.90;91.10;;;;;;5009115;28;20106;-81
2022/10/31 03:40:36;;;;;;;27.02;20.08;;;17.90;91.00;;;;;;5011566;28;20030;-81
2022/10/31 03:43:08;;;;;;;24.30;18.85;;;17.90;90.90;;;;;;5012610;28;20022;-81
2022/10/31 03:45:40;;;;;;;23.88;19.08;;;17.90;90.80;;;;;;5012056;28;20113;-81
2022/10/31 03:48:06;;;;;;;23.63;18.65;;;17.90;90.80;;;;;;5010802;28;20116;-81
2022/10/31 03:50:43;;;;;;;25.00;19.33;;;17.90;90.90;;;;;;5013229;28;20145;-82
2022/10/31 03:53:16;;;;;;;22.10;18.25;;;17.80;90.90;;;;;;5014187;28;20044;-83
2022/10/31 03:55:52;;;;;;;24.95;17.98;;;17.80;91.00;;;;;;5013914;28;20038;-83
2022/10/31 03:58:53;;;;;;;25.90;18.92;;;17.80;91.00;;;;;;5013714;28;20053;-83
2022/10/31 04:01:21;;;;;;;24.58;18.67;;;17.80;90.90;;;;;;4988406;28;20026;-83
2022/10/31 04:03:47;;;;;;;24.45;19.67;;;17.80;90.90;;;;;;5013590;28;20366;-82
2022/10/31 04:06:16;;;;;;;28.73;19.42;;;17.80;90.80;;;;;;5012766;28;20025;-82
2022/10/31 04:08:47;;;;;;;23.85;18.75;;;17.90;90.80;;;;;;5014312;28;20026;-82
2022/10/31 04:11:16;;;;;;;21.23;17.88;;;17.80;90.70;;;;;;5012567;28;20097;-82
2022/10/31 04:13:44;;;;;;;22.70;18.00;;;17.80;90.70;;;;;;5013243;28;20057;-83
2022/10/31 04:16:11;;;;;;;24.25;18.65;;;17.80;90.70;;;;;;5012251;28;20488;-83
2022/10/31 04:18:36;;;;;;;25.17;19.05;;;17.80;90.90;;;;;;5008994;28;20035;-82
2022/10/31 04:21:05;;;;;;;24.52;19.10;;;17.90;90.60;;;;;;5012925;28;20026;-83
2022/10/31 04:23:32;;;;;;;24.27;18.33;;;17.80;90.50;;;;;;4989418;28;20054;-81
2022/10/31 04:25:57;;;;;;;24.38;18.17;;;17.80;90.40;;;;;;5012537;28;20037;-81
2022/10/31 04:28:23;;;;;;;24.35;19.20;;;17.80;90.50;;;;;;5013670;28;20109;-82
2022/10/31 04:30:49;;;;;;;23.60;18.50;;;17.80;90.50;;;;;;5010690;28;20121;-81
2022/10/31 04:33:15;;;;;;;23.80;17.65;;;17.80;90.50;;;;;;5010300;28;20046;-82
2022/10/31 04:35:41;;;;;;;27.02;18.67;;;17.80;90.40;;;;;;5011813;28;20486;-82
2022/10/31 04:38:07;;;;;;;25.70;18.58;;;17.80;90.30;;;;;;5014944;28;20395;-82
2022/10/31 04:40:32;;;;;;;23.60;18.48;;;17.80;90.30;;;;;;5013014;28;20085;-82
2022/10/31 04:42:58;;;;;;;22.08;18.55;;;17.80;90.20;;;;;;5013454;28;20105;-82
2022/10/31 04:45:24;;;;;;;22.92;17.80;;;17.80;90.20;;;;;;5012002;28;20069;-82
2022/10/31 04:47:49;;;;;;;22.08;17.30;;;17.80;90.10;;;;;;5011688;28;20533;-82
2022/10/31 04:50:15;;;;;;;22.08;17.50;;;17.80;90.10;;;;;;5012215;28;20041;-82
2022/10/31 04:52:42;;;;;;;21.88;16.83;;;17.80;90.10;;;;;;5012994;28;20034;-82
2022/10/31 04:55:09;;;;;;;22.23;17.30;;;17.80;90.10;;;;;;5012141;28;20092;-82
2022/10/31 04:58:01;;;;;;;22.60;17.48;;;17.80;90.10;;;;;;5012330;28;20092;-82
2022/10/31 05:00:27;;;;;;;20.92;16.45;;;17.80;90.20;;;;;;5002974;28;20078;-81
2022/10/31 05:02:55;;;;;;;25.08;16.35;;;17.80;90.20;;;;;;5011143;28;20062;-82
2022/10/31 05:05:25;;;;;;;22.38;17.63;;;17.80;90.20;;;;;;5012277;28;20079;-82
2022/10/31 05:07:51;;;;;;;19.48;16.63;;;17.80;90.20;;;;;;5012378;28;20049;-81
2022/10/31 05:10:20;;;;;;;24.25;17.05;;;17.80;90.20;;;;;;5012337;28;20026;-81
2022/10/31 05:12:51;;;;;;;24.25;17.05;;;17.80;90.20;;;;;;5011030;28;20029;-82
2022/10/31 05:15:17;;;;;;;21.40;16.65;;;17.80;90.20;;;;;;5012119;28;20527;-81
2022/10/31 05:17:44;;;;;;;26.20;17.20;;;17.80;90.30;;;;;;5009738;28;20153;-82
2022/10/31 05:20:11;;;;;;;22.52;17.85;;;17.80;90.30;;;;;;5011566;28;20037;-82
2022/10/31 05:22:41;;;;;;;23.05;16.77;;;17.80;90.30;;;;;;5011812;28;20030;-81
2022/10/31 05:25:07;;;;;;;23.08;17.10;;;17.80;90.40;;;;;;5011756;28;20121;-81
2022/10/31 05:27:32;;;;;;;30.75;16.08;;;17.70;90.40;;;;;;5012479;28;20069;-81
2022/10/31 05:29:58;;;;;;;21.95;15.35;;;17.70;90.50;;;;;;5012136;28;20112;-82
2022/10/31 05:32:24;;;;;;;21.27;15.68;;;17.70;90.50;;;;;;5009108;28;20046;-82
2022/10/31 05:34:49;;;;;;;23.77;16.63;;;17.70;90.60;;;;;;5012795;28;20030;-81
2022/10/31 05:37:15;;;;;;;20.08;15.50;;;17.70;90.60;;;;;;5011863;28;20037;-81
2022/10/31 05:39:40;;;;;;;23.52;16.27;;;17.70;90.60;;;;;;5012590;28;20041;-81
2022/10/31 05:42:06;;;;;;;23.23;16.23;;;17.60;90.60;;;;;;5011598;28;20466;-81
2022/10/31 05:44:32;;;;;;;21.88;17.20;;;17.60;90.70;;;;;;5012066;28;20052;-83
2022/10/31 05:46:57;;;;;;;22.98;17.13;;;17.60;90.70;;;;;;5010446;28;20038;-82
2022/10/31 05:49:23;;;;;;;27.40;19.13;;;17.60;90.50;;;;;;5006319;28;20030;-81
2022/10/31 05:51:49;;;;;;;23.17;17.48;;;17.60;90.50;;;;;;5010551;28;20026;-81
2022/10/31 05:54:14;;;;;;;25.00;18.13;;;17.60;90.40;;;;;;5008207;28;20116;-80
2022/10/31 05:56:40;;;;;;;26.83;18.05;;;17.50;90.40;;;;;;5011128;28;20036;-79
2022/10/31 05:59:06;;;;;;;24.48;16.70;;;17.50;90.70;;;;;;5011870;28;20454;-81
2022/10/31 06:01:32;;;;;;;23.20;18.17;;;17.50;90.50;;;;;;5002434;28;20045;-79
2022/10/31 06:03:58;;;;;;;22.45;17.10;;;17.50;90.40;;;;;;5009862;28;20029;-79
2022/10/31 06:06:23;;;;;;;22.13;18.05;;;17.50;90.30;;;;;;5009469;28;20623;-81
2022/10/31 06:08:49;;;;;;;25.35;17.92;;;17.50;90.30;;;;;;5009660;28;20030;-71
2022/10/31 06:11:15;;;;;;;21.42;17.13;;;17.40;90.30;;;;;;5008819;28;20022;-71
2022/10/31 06:13:40;;;;;;;21.65;16.75;;;17.40;90.30;;;;;;5008244;28;20029;-71
2022/10/31 06:16:06;;;;;;;24.52;19.15;;;17.50;90.20;;;;;;5009038;28;20025;-71
2022/10/31 06:18:32;;;;;;;25.30;18.27;;;17.50;90.20;;;;;;5005957;28;20454;-71
2022/10/31 06:20:57;;;;;;;20.25;17.00;;;17.40;90.20;;;;;;5009335;28;20033;-71
2022/10/31 06:23:23;;;;;;;26.10;19.33;;;17.30;90.30;;;;;;5011631;28;20385;-71
2022/10/31 06:25:50;;;;;;;24.30;18.15;;;17.30;90.30;;;;;;5012576;28;20026;-71
2022/10/31 06:28:16;;;;;;;23.17;17.63;;;17.20;90.40;;;;;;5007558;28;20046;-70
2022/10/31 06:30:41;;;;;;;19.55;16.30;;;17.20;90.40;;;;;;5008742;28;20466;-70
2022/10/31 06:33:07;;;;;;;23.17;17.33;;;17.20;90.50;;;;;;5008801;28;20343;-77
2022/10/31 06:35:33;;;;;;;25.70;18.60;;;17.10;90.50;;;;;;5009366;28;20042;-73
2022/10/31 06:37:59;;;;;;;23.30;17.80;;;17.20;90.50;;;;;;5010155;28;20116;-73
2022/10/31 06:40:24;;;;;;;25.65;18.40;;;17.30;90.70;;;;;;5011994;28;20037;-75
2022/10/31 06:43:00;;;;;;;25.13;16.70;;;17.30;90.50;;;;;;5008246;28;20026;-73
2022/10/31 06:45:26;;;;;;;27.85;18.73;;;17.40;90.50;;;;;;5009842;28;20041;-75
2022/10/31 06:47:55;;;;;;;31.30;18.85;;;17.40;90.40;;;;;;5013217;28;20038;-75
2022/10/31 06:50:22;;;;;;;23.27;18.10;;;17.50;90.30;;;;;;4993923;28;20023;-75
2022/10/31 06:52:54;;;;;;;24.10;16.92;;;17.50;90.20;;;;;;4997474;28;20057;-74
2022/10/31 06:55:22;;;;;;;22.45;16.85;;;17.50;90.30;;;;;;5010931;28;20030;-84
2022/10/31 06:57:59;;;;;;;22.40;16.27;;;17.60;90.30;;;;;;5012639;28;20054;-74
2022/10/31 07:00:27;;;;;;;24.10;16.15;;;17.60;90.20;;;;;;5012365;28;20370;-74
2022/10/31 07:02:57;;;;;;;21.13;16.38;;;17.70;90.20;;;;;;5012196;28;20036;-74
2022/10/31 07:05:23;;;;;;;25.30;17.20;;;17.70;90.20;;;;;;5011494;28;20113;-73
2022/10/31 07:08:05;;;;;;;22.58;16.27;;;17.70;90.20;;;;;;5012626;28;20091;-74
2022/10/31 07:10:33;;;;;;;22.63;16.83;;;17.80;90.20;;;;;;5012333;28;20029;-74
2022/10/31 07:13:02;;;;;;;23.48;16.40;;;17.80;90.20;;;;;;5012148;28;20113;-73
2022/10/31 07:15:29;;;;;;;21.83;16.65;;;17.90;90.10;;;;;;5011446;28;20026;-73
2022/10/31 07:18:01;;;;;;;18.38;14.93;;;17.90;90.10;;;;;;5012373;28;20025;-73
2022/10/31 07:20:27;;;;;;;19.75;15.68;;;18.00;90.10;;;;;;5012279;28;20105;-74
2022/10/31 07:22:52;;;;;;;20.77;16.63;;;18.00;90.10;;;;;;5012163;28;20029;-73
2022/10/31 07:25:18;;;;;;;21.17;15.65;;;18.00;90.20;;;;;;5015650;28;20034;-73
2022/10/31 07:27:44;;;;;;;19.55;15.65;;;18.00;90.20;;;;;;5015165;28;20058;-74
2022/10/31 07:30:11;;;;;;;23.52;17.10;;;18.10;90.20;;;;;;5016072;28;20022;-72
2022/10/31 07:32:41;;;;;;;23.27;16.13;;;18.10;90.20;;;;;;5015487;28;20038;-71
2022/10/31 07:35:08;;;;;;;;;;;18.20;90.20;;;;;;5014694;28;20053;-71
2022/10/31 07:37:33;;;;;;;21.42;15.85;;;18.30;90.20;;;;;;4999531;28;19963;-71
2022/10/31 07:39:59;;;;;;;23.15;15.32;;;18.30;90.30;;;;;;5014772;28;20034;-72
2022/10/31 07:42:25;;;;;;;18.63;14.52;;;18.30;90.40;;;;;;5014206;28;20025;-72
2022/10/31 07:44:51;;;;;;;22.50;15.95;;;18.40;90.50;;;;;;5015614;28;20062;-71
2022/10/31 07:47:16;;;;;;;19.35;15.13;;;18.50;90.50;;;;;;5014981;28;20049;-74
2022/10/31 07:49:42;;;;;;;21.55;16.35;;;18.50;90.40;;;;;;5015898;28;20034;-73
2022/10/31 07:52:07;;;;;;;18.95;15.70;;;18.60;90.30;;;;;;5015277;28;20053;-81
2022/10/31 07:54:33;;;;;;;21.52;15.00;;;18.60;90.30;;;;;;5014314;28;20127;-73
2022/10/31 07:56:59;;;;;;;21.98;14.88;;;18.70;90.30;;;;;;5015676;28;20063;-73
2022/10/31 07:59:25;;;;;;;20.13;14.48;;;18.80;90.30;;;;;;5015757;28;20034;-73
2022/10/31 08:01:51;;;;;;;22.55;15.32;;;18.90;90.30;;;;;;5014941;28;20105;-72
2022/10/31 08:04:16;;;;;;;28.80;16.20;;;19.00;90.20;;;;;;5014355;28;20160;-72
2022/10/31 08:06:42;;;;;;;23.52;15.55;;;19.00;90.20;;;;;;5015459;28;20374;-71
2022/10/31 08:09:08;;;;;;;21.58;15.60;;;19.10;90.10;;;;;;5013933;28;20038;-72
2022/10/31 08:11:33;;;;;;;22.75;15.75;;;19.20;90.10;;;;;;5014888;28;20540;-71
2022/10/31 08:13:59;;;;;;;21.20;16.15;;;19.40;90.00;;;;;;5014077;28;20034;-72
2022/10/31 08:16:25;;;;;;;23.83;15.75;;;19.50;89.70;;;;;;5015314;28;20022;-73
2022/10/31 08:18:50;;;;;;;21.58;16.08;;;19.60;89.60;;;;;;5014924;28;20108;-73
2022/10/31 08:21:16;;;;;;;22.58;16.02;;;19.60;89.30;;;;;;5006534;28;20033;-74
2022/10/31 08:23:42;;;;;;;20.80;14.80;;;19.80;89.30;;;;;;5001967;28;20053;-74
2022/10/31 08:26:08;;;;;;;23.23;15.55;;;19.90;89.10;;;;;;5013845;28;20459;-74
2022/10/31 08:28:33;;;;;;;20.08;14.88;;;20.00;88.70;;;;;;5015146;28;20053;-80
2022/10/31 08:30:59;;;;;;;19.90;15.98;;;20.20;88.60;;;;;;5014837;28;20441;-80
2022/10/31 08:33:25;;;;;;;26.52;17.05;;;20.30;88.20;;;;;;5015194;28;20450;-80
2022/10/31 08:35:50;;;;;;;21.55;15.73;;;20.50;87.90;;;;;;5013286;28;20026;-80
2022/10/31 08:38:16;;;;;;;28.65;18.50;;;20.60;87.50;;;;;;5007806;28;20026;-73
2022/10/31 08:40:42;;;;;;;28.63;16.73;;;20.70;87.00;;;;;;4994290;28;20037;-83
2022/10/31 08:43:13;;;;;;;23.02;16.77;;;20.90;86.80;;;;;;5012956;28;20026;-80
2022/10/31 08:45:40;;;;;;;21.92;15.75;;;21.10;86.40;;;;;;5011389;28;20134;-80
2022/10/31 08:48:09;;;;;;;23.20;15.35;;;21.20;85.80;;;;;;5013400;28;20042;-80
2022/10/31 08:50:35;;;;;;;31.38;14.40;;;21.30;85.40;;;;;;5014024;28;20037;-80
2022/10/31 08:53:07;;;;;;;24.48;13.90;;;21.50;84.90;;;;;;5014331;28;20040;-80
2022/10/31 08:55:35;;;;;;;20.30;13.98;;;21.60;84.00;;;;;;5009738;28;20037;-81
2022/10/31 08:58:01;;;;;;;23.70;13.85;;;21.70;83.60;;;;;;5010064;28;20041;-80
2022/10/31 09:00:27;;;;;;;17.83;13.45;;;21.90;83.30;;;;;;5014788;28;20054;-80
2022/10/31 09:02:57;;;;;;;26.98;13.85;;;22.00;82.90;;;;;;5012049;28;20038;-80
2022/10/31 09:05:23;;;;;;;21.23;12.75;;;22.20;82.60;;;;;;5014671;28;20470;-81
2022/10/31 09:07:48;;;;;;;19.88;15.35;;;22.30;82.10;;;;;;5010990;28;20486;-73
2022/10/31 09:10:14;;;;;;;18.70;13.35;;;22.40;81.30;;;;;;5006243;28;20073;-73
2022/10/31 09:12:41;;;;;;;20.25;13.63;;;22.50;81.00;;;;;;5010710;28;20518;-73
2022/10/31 09:15:07;;;;;;;19.92;12.85;;;22.50;81.20;;;;;;5011654;28;20033;-74
2022/10/31 09:17:33;;;;;;;23.63;14.50;;;22.70;81.10;;;;;;5010744;28;20382;-73
2022/10/31 09:19:58;;;;;;;20.60;13.40;;;22.80;80.90;;;;;;5010383;28;20026;-73
2022/10/31 09:22:24;;;;;;;21.52;13.98;;;22.90;80.50;;;;;;5010618;28;20033;-80
2022/10/31 09:24:50;;;;;;;20.20;13.68;;;23.10;80.30;;;;;;5010381;28;20584;-80
2022/10/31 09:27:15;;;;;;;17.40;12.20;;;23.20;79.80;;;;;;5009547;28;20033;-80
2022/10/31 09:29:41;;;;;;;17.60;12.85;;;23.30;79.50;;;;;;5010721;28;20112;-80
2022/10/31 09:32:06;;;;;;;17.95;13.20;;;23.50;79.10;;;;;;5008775;28;20108;-80
2022/10/31 09:34:32;;;;;;;15.50;11.48;;;23.60;78.70;;;;;;5004282;28;20065;-80
2022/10/31 09:36:58;;;;;;;19.58;12.70;;;23.70;78.20;;;;;;5009570;28;20083;-80
2022/10/31 09:39:24;;;;;;;18.30;12.15;;;23.80;77.70;;;;;;5011515;28;20030;-80
2022/10/31 09:42:11;;;;;;;17.60;11.77;;;23.90;76.80;;;;;;5007278;28;20429;-80
2022/10/31 09:44:58;;;;;;;22.25;11.82;;;24.00;76.50;;;;;;5005458;28;20043;-80
2022/10/31 09:48:22;;;;;;;19.73;12.32;;;24.10;75.80;;;;;;5010494;28;20041;-81
2022/10/31 09:51:04;;;;;;;18.60;11.00;;;24.20;75.50;;;;;;4968695;28;20043;-80
2022/10/31 09:53:51;;;;;;;17.25;10.63;;;24.40;75.20;;;;;;4999559;28;20482;-80
2022/10/31 09:56:20;;;;;;;18.65;10.27;;;24.50;74.50;;;;;;5007769;28;20108;-80
2022/10/31 09:58:50;;;;;;;18.52;11.13;;;24.70;74.10;;;;;;5009762;28;20036;-80
2022/10/31 10:01:30;;;;;;;22.60;10.57;;;24.80;73.70;;;;;;5007460;28;20358;-81
2022/10/31 10:04:02;;;;;;;14.55;9.52;;;24.80;73.30;;;;;;5004467;28;20030;-80
2022/10/31 10:06:32;;;;;;;20.00;10.30;;;24.80;73.20;;;;;;5011030;28;20038;-80
2022/10/31 10:08:58;;;;;;;15.13;10.75;;;24.90;73.10;;;;;;5010050;28;20443;-80
2022/10/31 10:11:57;;;;;;;17.60;11.23;;;25.10;73.10;;;;;;5011478;28;20113;-80
2022/10/31 10:14:30;;;;;;;18.35;10.15;;;25.20;72.50;;;;;;5011242;28;20045;-80
2022/10/31 10:17:34;;;;;;;16.70;9.73;;;25.40;72.20;;;;;;5013455;28;20128;-80
2022/10/31 10:20:25;;;;;;;36.28;13.18;;;25.50;71.50;;;;;;5002724;28;20442;-80
2022/10/31 10:23:21;;;;;;;22.80;11.57;;;25.70;71.50;;;;;;5007459;28;20029;-80
2022/10/31 10:25:53;;;;;;;16.13;9.63;;;25.80;70.60;;;;;;5005652;28;20053;-80
2022/10/31 10:28:25;;;;;;;16.95;9.77;;;26.00;70.40;;;;;;5010896;28;20045;-80
2022/10/31 10:30:57;;;;;;;14.52;9.75;;;26.10;70.00;;;;;;5013608;28;20113;-81
2022/10/31 10:33:34;;;;;;;17.80;10.73;;;26.20;69.70;;;;;;5013113;28;20124;-80
2022/10/31 10:36:05;;;;;;;18.63;10.13;;;26.30;69.40;;;;;;5004840;28;20549;-80
2022/10/31 10:38:38;;;;;;;16.00;9.70;;;26.40;69.30;;;;;;5007760;28;20026;-80
2022/10/31 10:41:14;;;;;;;16.70;9.35;;;26.50;68.90;;;;;;5007432;28;20033;-80
2022/10/31 10:43:40;;;;;;;15.75;7.88;;;26.60;68.50;;;;;;5008414;28;20116;-80
2022/10/31 10:49:17;;;;;;;15.73;9.13;;;26.90;67.50;;;;;;5012660;28;20052;-80
2022/10/31 10:52:20;;;;;;;19.45;9.90;;;27.00;67.40;;;;;;5014074;28;20040;-80
2022/10/31 10:55:04;;;;;;;18.05;10.75;;;27.10;66.10;;;;;;5009209;28;20057;-80
2022/10/31 10:57:42;;;;;;;20.65;9.90;;;27.10;66.20;;;;;;5010074;28;20030;-80
2022/10/31 11:00:23;;;;;;;16.58;8.50;;;27.20;66.00;;;;;;5016097;28;20597;-80
2022/10/31 11:02:48;;;;;;;16.17;8.20;;;27.30;65.30;;;;;;5014895;28;20118;-80
2022/10/31 11:05:23;;;;;;;18.52;9.80;;;27.40;65.50;;;;;;5009083;28;20084;-80
2022/10/31 11:07:49;;;;;;;17.02;9.82;;;27.60;64.30;;;;;;5012962;28;20025;-80
2022/10/31 11:10:16;;;;;;;18.20;9.82;;;27.70;63.90;;;;;;5007519;28;20494;-76
2022/10/31 11:12:44;;;;;;;15.43;9.25;;;27.70;64.00;;;;;;5013871;28;20032;-75
2022/10/31 11:15:22;;;;;;;20.10;10.07;;;27.90;63.60;;;;;;5010993;28;20025;-75
2022/10/31 11:17:51;;;;;;;17.10;8.73;;;28.00;61.50;;;;;;5011537;28;20483;-75
2022/10/31 11:20:17;;;;;;;23.15;9.68;;;28.10;61.40;;;;;;5013470;28;20060;-75
2022/10/31 11:22:44;;;;;;;16.20;8.98;;;28.30;61.50;;;;;;5012187;28;20066;-75
2022/10/31 11:25:19;;;;;;;17.73;8.63;;;28.60;61.70;;;;;;5007921;28;20030;-74
2022/10/31 11:27:46;;;;;;;18.05;8.80;;;29.20;60.90;;;;;;5010059;28;20154;-75
2022/10/31 11:30:13;;;;;;;17.02;8.95;;;29.90;60.00;;;;;;5011163;28;20038;-78
2022/10/31 11:32:52;;;;;;;18.63;9.13;;;30.70;58.90;;;;;;5013389;28;20421;-76
2022/10/31 11:35:20;;;;;;;20.67;9.27;;;31.50;56.60;;;;;;5006149;28;20031;-76
2022/10/31 11:37:50;;;;;;;15.55;8.90;;;32.40;55.50;;;;;;5009628;28;20030;-77
2022/10/31 11:40:20;;;;;;;15.82;7.90;;;33.20;53.50;;;;;;5006344;28;20121;-81
2022/10/31 11:42:46;;;;;;;14.85;8.48;;;33.90;51.10;;;;;;5015636;28;20109;-81
2022/10/31 11:45:32;;;;;;;14.95;8.52;;;34.40;49.60;;;;;;5014691;28;20029;-76
2022/10/31 11:48:00;;;;;;;18.55;8.45;;;34.90;48.60;;;;;;5012511;28;20026;-81
2022/10/31 11:50:41;;;;;;;14.85;8.07;;;35.30;47.70;;;;;;5004286;28;20030;-81
2022/10/31 11:53:32;;;;;;;13.25;8.75;;;35.70;46.40;;;;;;5013161;28;20033;-81
2022/10/31 11:56:18;;;;;;;20.85;8.70;;;36.00;45.80;;;;;;5011556;28;20037;-81
2022/10/31 11:59:00;;;;;;;15.65;8.38;;;36.20;45.30;;;;;;5005307;28;20034;-80
2022/10/31 12:01:28;;;;;;;17.13;8.40;;;36.30;45.00;;;;;;5014920;28;20112;-81
2022/10/31 12:04:10;;;;;;;14.68;8.57;;;36.50;44.20;;;;;;5007717;28;20022;-81
2022/10/31 12:06:38;;;;;;;13.65;8.15;;;36.50;44.00;;;;;;5011952;28;20597;-81
2022/10/31 12:09:27;;;;;;;12.93;8.60;;;36.60;43.90;;;;;;5015759;28;20060;-79
2022/10/31 12:11:53;;;;;;;15.35;8.43;;;36.60;43.70;;;;;;5011265;28;20037;-79
2022/10/31 12:14:28;;;;;;;18.25;8.77;;;36.50;44.30;;;;;;5011786;28;20393;-76
2022/10/31 12:17:12;;;;;;;17.65;9.13;;;36.20;43.80;;;;;;5010971;28;20470;-76
2022/10/31 12:19:49;;;;;;;17.48;9.50;;;35.90;43.20;;;;;;5012618;28;20034;-83
2022/10/31 12:22:24;;;;;;;16.35;8.45;;;35.50;43.30;;;;;;5012129;28;20473;-83
2022/10/31 12:25:01;;;;;;;16.00;7.82;;;35.30;44.00;;;;;;5014673;28;20050;-77
2022/10/31 12:27:36;;;;;;;14.75;8.20;;;35.00;44.30;;;;;;5015904;28;20047;-82
2022/10/31 12:30:17;;;;;;;14.82;8.30;;;34.80;44.70;;;;;;5016110;28;20155;-77
2022/10/31 12:33:07;;;;;;;16.48;8.73;;;34.80;45.30;;;;;;5014546;28;20033;-75
2022/10/31 12:35:41;;;;;;;15.55;9.80;;;34.80;45.60;;;;;;5012034;28;20038;-75
2022/10/31 12:38:48;;;;;;;19.65;11.13;;;34.70;45.60;;;;;;5006645;28;20034;-75
2022/10/31 12:41:19;;;;;;;22.60;12.25;;;34.50;46.60;;;;;;5011523;28;20033;-75
2022/10/31 12:44:04;;;;;;;27.20;13.07;;;34.40;47.40;;;;;;5013187;28;20686;-75
2022/10/31 12:46:56;;;;;;;19.92;13.02;;;34.40;47.60;;;;;;5010584;28;20486;-77
2022/10/31 12:49:43;;;;;;;25.60;14.02;;;34.30;47.20;;;;;;5010317;28;20026;-80